sensor_id;sensor_type;location;lat;lon;timestamp;P1;durP1;ratioP1;P2;durP2;ratioP2
19161;SDS011;9713;48.140;11.530;2023-06-10T00:01:12;7.60;;;6.32;;
19161;SDS011;9713;48.140;11.530;2023-06-10T00:04:55;9.98;;;6.22;;
19161;SDS011;9713;48.140;11.530;2023-06-10T00:08:38;7.43;;;6.22;;
19161;SDS011;9713;48.140;11.530;2023-06-10T00:12:26;8.07;;;6.10;;
19161;SDS011;9713;48.140;11.530;2023-06-10T00:16:13;7.70;;;6.30;;
19161;SDS011;9713;48.140;11.530;2023-06-10T00:19:56;7.13;;;6.22;;
19161;SDS011;9713;48.140;11.530;2023-06-10T00:23:41;7.20;;;5.70;;
19161;SDS011;9713;48.140;11.530;2023-06-10T00:27:26;6.35;;;5.20;;
19161;SDS011;9713;48.140;11.530;2023-06-10T00:31:12;7.45;;;5.82;;
19161;SDS011;9713;48.140;11.530;2023-06-10T00:34:56;6.68;;;5.55;;
19161;SDS011;9713;48.140;11.530;2023-06-10T00:38:38;6.40;;;5.28;;
19161;SDS011;9713;48.140;11.530;2023-06-10T00:42:22;5.55;;;4.75;;
19161;SDS011;9713;48.140;11.530;2023-06-10T00:46:07;5.97;;;5.15;;
19161;SDS011;9713;48.140;11.530;2023-06-10T00:49:50;5.90;;;5.30;;
19161;SDS011;9713;48.140;11.530;2023-06-10T00:53:33;6.47;;;5.47;;
19161;SDS011;9713;48.140;11.530;2023-06-10T00:57:15;6.00;;;5.22;;
19161;SDS011;9713;48.140;11.530;2023-06-10T01:00:58;6.53;;;5.25;;
19161;SDS011;9713;48.140;11.530;2023-06-10T01:04:43;6.03;;;5.43;;
19161;SDS011;9713;48.140;11.530;2023-06-10T01:08:32;6.43;;;5.35;;
19161;SDS011;9713;48.140;11.530;2023-06-10T01:12:19;7.45;;;5.55;;
19161;SDS011;9713;48.140;11.530;2023-06-10T01:16:15;6.38;;;5.35;;
19161;SDS011;9713;48.140;11.530;2023-06-10T01:20:02;7.40;;;5.85;;
19161;SDS011;9713;48.140;11.530;2023-06-10T01:23:54;6.43;;;5.72;;
19161;SDS011;9713;48.140;11.530;2023-06-10T01:27:37;7.22;;;5.88;;
19161;SDS011;9713;48.140;11.530;2023-06-10T01:31:23;6.05;;;5.43;;
19161;SDS011;9713;48.140;11.530;2023-06-10T01:35:15;6.15;;;5.53;;
19161;SDS011;9713;48.140;11.530;2023-06-10T01:39:01;7.85;;;6.00;;
19161;SDS011;9713;48.140;11.530;2023-06-10T01:42:44;7.78;;;5.72;;
19161;SDS011;9713;48.140;11.530;2023-06-10T01:46:27;9.70;;;5.80;;
19161;SDS011;9713;48.140;11.530;2023-06-10T01:50:10;9.00;;;6.25;;
19161;SDS011;9713;48.140;11.530;2023-06-10T01:53:53;6.78;;;6.05;;
19161;SDS011;9713;48.140;11.530;2023-06-10T01:57:37;8.55;;;6.38;;
19161;SDS011;9713;48.140;11.530;2023-06-10T02:01:20;6.55;;;5.78;;
19161;SDS011;9713;48.140;11.530;2023-06-10T02:05:03;7.32;;;6.40;;
19161;SDS011;9713;48.140;11.530;2023-06-10T02:08:47;8.13;;;6.30;;
19161;SDS011;9713;48.140;11.530;2023-06-10T02:12:29;8.07;;;7.28;;
19161;SDS011;9713;48.140;11.530;2023-06-10T02:16:14;9.00;;;6.90;;
19161;SDS011;9713;48.140;11.530;2023-06-10T02:19:58;7.57;;;6.40;;
19161;SDS011;9713;48.140;11.530;2023-06-10T02:23:47;8.63;;;6.50;;
19161;SDS011;9713;48.140;11.530;2023-06-10T02:27:30;8.23;;;6.13;;
19161;SDS011;9713;48.140;11.530;2023-06-10T02:31:15;8.82;;;6.40;;
19161;SDS011;9713;48.140;11.530;2023-06-10T02:34:59;8.25;;;7.10;;
19161;SDS011;9713;48.140;11.530;2023-06-10T02:38:42;7.75;;;6.97;;
19161;SDS011;9713;48.140;11.530;2023-06-10T02:42:25;9.48;;;7.03;;
19161;SDS011;9713;48.140;11.530;2023-06-10T02:46:08;9.30;;;7.20;;
19161;SDS011;9713;48.140;11.530;2023-06-10T02:49:52;7.75;;;6.95;;
19161;SDS011;9713;48.140;11.530;2023-06-10T02:53:35;7.78;;;6.97;;
19161;SDS011;9713;48.140;11.530;2023-06-10T02:57:18;8.15;;;6.90;;
19161;SDS011;9713;48.140;11.530;2023-06-10T03:01:01;8.27;;;7.25;;
19161;SDS011;9713;48.140;11.530;2023-06-10T03:04:45;8.80;;;7.65;;
19161;SDS011;9713;48.140;11.530;2023-06-10T03:08:29;9.45;;;7.97;;
19161;SDS011;9713;48.140;11.530;2023-06-10T03:12:12;10.10;;;8.25;;
19161;SDS011;9713;48.140;11.530;2023-06-10T03:15:54;8.75;;;7.65;;
19161;SDS011;9713;48.140;11.530;2023-06-10T03:19:38;10.27;;;8.07;;
19161;SDS011;9713;48.140;11.530;2023-06-10T03:23:20;9.48;;;8.48;;
19161;SDS011;9713;48.140;11.530;2023-06-10T03:27:06;9.20;;;8.00;;
19161;SDS011;9713;48.140;11.530;2023-06-10T03:30:49;12.85;;;8.13;;
19161;SDS011;9713;48.140;11.530;2023-06-10T03:34:33;9.55;;;8.27;;
19161;SDS011;9713;48.140;11.530;2023-06-10T03:38:16;10.45;;;8.00;;
19161;SDS011;9713;48.140;11.530;2023-06-10T03:41:58;10.00;;;8.90;;
19161;SDS011;9713;48.140;11.530;2023-06-10T03:45:43;9.55;;;8.32;;
19161;SDS011;9713;48.140;11.530;2023-06-10T03:49:26;10.80;;;8.23;;
19161;SDS011;9713;48.140;11.530;2023-06-10T03:53:10;11.07;;;8.50;;
19161;SDS011;9713;48.140;11.530;2023-06-10T03:56:53;10.48;;;8.38;;
19161;SDS011;9713;48.140;11.530;2023-06-10T04:00:36;10.38;;;8.55;;
19161;SDS011;9713;48.140;11.530;2023-06-10T04:04:24;12.32;;;10.20;;
19161;SDS011;9713;48.140;11.530;2023-06-10T04:08:07;11.65;;;8.63;;
19161;SDS011;9713;48.140;11.530;2023-06-10T04:11:50;10.10;;;7.90;;
19161;SDS011;9713;48.140;11.530;2023-06-10T04:15:32;11.63;;;8.80;;
19161;SDS011;9713;48.140;11.530;2023-06-10T04:19:15;9.48;;;8.48;;
19161;SDS011;9713;48.140;11.530;2023-06-10T04:23:00;9.70;;;8.02;;
19161;SDS011;9713;48.140;11.530;2023-06-10T04:26:43;9.98;;;8.45;;
19161;SDS011;9713;48.140;11.530;2023-06-10T04:30:28;11.57;;;8.85;;
19161;SDS011;9713;48.140;11.530;2023-06-10T04:34:12;10.48;;;8.20;;
19161;SDS011;9713;48.140;11.530;2023-06-10T04:37:55;10.27;;;8.70;;
19161;SDS011;9713;48.140;11.530;2023-06-10T04:41:39;11.32;;;8.50;;
19161;SDS011;9713;48.140;11.530;2023-06-10T04:45:22;10.02;;;8.68;;
19161;SDS011;9713;48.140;11.530;2023-06-10T04:49:05;9.57;;;8.57;;
19161;SDS011;9713;48.140;11.530;2023-06-10T04:52:48;11.48;;;8.60;;
19161;SDS011;9713;48.140;11.530;2023-06-10T04:56:31;11.50;;;8.88;;
19161;SDS011;9713;48.140;11.530;2023-06-10T05:00:15;10.07;;;8.95;;
19161;SDS011;9713;48.140;11.530;2023-06-10T05:03:58;10.30;;;8.82;;
19161;SDS011;9713;48.140;11.530;2023-06-10T05:07:41;11.30;;;9.40;;
19161;SDS011;9713;48.140;11.530;2023-06-10T05:11:24;9.95;;;8.57;;
19161;SDS011;9713;48.140;11.530;2023-06-10T05:15:07;13.13;;;9.55;;
19161;SDS011;9713;48.140;11.530;2023-06-10T05:18:52;11.60;;;8.93;;
19161;SDS011;9713;48.140;11.530;2023-06-10T05:22:35;11.40;;;9.05;;
19161;SDS011;9713;48.140;11.530;2023-06-10T05:26:19;11.02;;;9.35;;
19161;SDS011;9713;48.140;11.530;2023-06-10T05:30:01;11.40;;;9.07;;
19161;SDS011;9713;48.140;11.530;2023-06-10T05:33:45;12.70;;;10.00;;
19161;SDS011;9713;48.140;11.530;2023-06-10T05:37:30;11.68;;;9.82;;
19161;SDS011;9713;48.140;11.530;2023-06-10T05:41:15;11.55;;;9.10;;
19161;SDS011;9713;48.140;11.530;2023-06-10T05:44:58;10.45;;;9.35;;
19161;SDS011;9713;48.140;11.530;2023-06-10T05:48:41;14.63;;;10.60;;
19161;SDS011;9713;48.140;11.530;2023-06-10T05:52:24;13.20;;;10.23;;
19161;SDS011;9713;48.140;11.530;2023-06-10T05:56:08;11.55;;;9.00;;
19161;SDS011;9713;48.140;11.530;2023-06-10T05:59:51;10.70;;;9.35;;
19161;SDS011;9713;48.140;11.530;2023-06-10T06:03:34;11.52;;;9.88;;
19161;SDS011;9713;48.140;11.530;2023-06-10T06:07:17;10.82;;;9.20;;
19161;SDS011;9713;48.140;11.530;2023-06-10T06:11:01;13.73;;;9.85;;
19161;SDS011;9713;48.140;11.530;2023-06-10T06:14:46;12.40;;;9.35;;
19161;SDS011;9713;48.140;11.530;2023-06-10T06:18:30;10.68;;;9.38;;
19161;SDS011;9713;48.140;11.530;2023-06-10T06:22:13;11.50;;;9.30;;
19161;SDS011;9713;48.140;11.530;2023-06-10T06:25:55;11.70;;;9.52;;
19161;SDS011;9713;48.140;11.530;2023-06-10T06:29:38;11.20;;;8.98;;
19161;SDS011;9713;48.140;11.530;2023-06-10T06:33:23;10.32;;;9.25;;
19161;SDS011;9713;48.140;11.530;2023-06-10T06:37:10;11.63;;;9.20;;
19161;SDS011;9713;48.140;11.530;2023-06-10T06:40:54;10.02;;;8.75;;
19161;SDS011;9713;48.140;11.530;2023-06-10T06:44:37;11.15;;;9.32;;
19161;SDS011;9713;48.140;11.530;2023-06-10T06:48:20;12.23;;;8.95;;
19161;SDS011;9713;48.140;11.530;2023-06-10T06:52:05;11.10;;;9.20;;
19161;SDS011;9713;48.140;11.530;2023-06-10T06:55:48;11.95;;;9.52;;
19161;SDS011;9713;48.140;11.530;2023-06-10T06:59:30;10.20;;;9.10;;
19161;SDS011;9713;48.140;11.530;2023-06-10T07:03:14;15.95;;;9.63;;
19161;SDS011;9713;48.140;11.530;2023-06-10T07:06:56;13.65;;;9.30;;
19161;SDS011;9713;48.140;11.530;2023-06-10T07:10:40;10.63;;;8.93;;
19161;SDS011;9713;48.140;11.530;2023-06-10T07:14:23;8.82;;;7.72;;
19161;SDS011;9713;48.140;11.530;2023-06-10T07:18:06;10.73;;;8.82;;
19161;SDS011;9713;48.140;11.530;2023-06-10T07:21:49;11.13;;;8.65;;
19161;SDS011;9713;48.140;11.530;2023-06-10T07:25:32;10.50;;;8.70;;
19161;SDS011;9713;48.140;11.530;2023-06-10T07:29:16;10.50;;;8.45;;
19161;SDS011;9713;48.140;11.530;2023-06-10T07:32:59;12.25;;;8.90;;
19161;SDS011;9713;48.140;11.530;2023-06-10T07:36:47;8.73;;;7.80;;
19161;SDS011;9713;48.140;11.530;2023-06-10T07:40:29;11.00;;;8.35;;
19161;SDS011;9713;48.140;11.530;2023-06-10T07:44:16;9.85;;;7.75;;
19161;SDS011;9713;48.140;11.530;2023-06-10T07:47:59;10.30;;;7.28;;
19161;SDS011;9713;48.140;11.530;2023-06-10T07:51:42;9.80;;;7.60;;
19161;SDS011;9713;48.140;11.530;2023-06-10T07:55:25;60.72;;;39.72;;
19161;SDS011;9713;48.140;11.530;2023-06-10T07:59:08;43.92;;;20.30;;
19161;SDS011;9713;48.140;11.530;2023-06-10T08:02:52;11.10;;;8.32;;
19161;SDS011;9713;48.140;11.530;2023-06-10T08:06:35;9.30;;;7.07;;
19161;SDS011;9713;48.140;11.530;2023-06-10T08:10:18;10.98;;;6.90;;
19161;SDS011;9713;48.140;11.530;2023-06-10T08:14:01;14.05;;;7.68;;
19161;SDS011;9713;48.140;11.530;2023-06-10T08:17:43;8.52;;;7.18;;
19161;SDS011;9713;48.140;11.530;2023-06-10T08:21:28;28.48;;;13.73;;
19161;SDS011;9713;48.140;11.530;2023-06-10T08:25:10;12.23;;;6.97;;
19161;SDS011;9713;48.140;11.530;2023-06-10T08:28:53;9.00;;;6.88;;
19161;SDS011;9713;48.140;11.530;2023-06-10T08:32:36;11.02;;;6.65;;
19161;SDS011;9713;48.140;11.530;2023-06-10T08:36:19;39.40;;;19.15;;
19161;SDS011;9713;48.140;11.530;2023-06-10T08:40:04;8.60;;;6.32;;
19161;SDS011;9713;48.140;11.530;2023-06-10T08:43:48;7.72;;;6.53;;
19161;SDS011;9713;48.140;11.530;2023-06-10T08:47:37;7.05;;;6.28;;
19161;SDS011;9713;48.140;11.530;2023-06-10T08:51:23;14.90;;;9.65;;
19161;SDS011;9713;48.140;11.530;2023-06-10T08:55:10;14.70;;;8.20;;
19161;SDS011;9713;48.140;11.530;2023-06-10T08:58:54;9.32;;;6.57;;
19161;SDS011;9713;48.140;11.530;2023-06-10T09:02:38;7.22;;;6.00;;
19161;SDS011;9713;48.140;11.530;2023-06-10T09:06:21;10.57;;;6.93;;
19161;SDS011;9713;48.140;11.530;2023-06-10T09:10:04;7.93;;;6.57;;
19161;SDS011;9713;48.140;11.530;2023-06-10T09:13:51;6.80;;;6.10;;
19161;SDS011;9713;48.140;11.530;2023-06-10T09:17:34;7.32;;;5.97;;
19161;SDS011;9713;48.140;11.530;2023-06-10T09:21:19;7.47;;;5.80;;
19161;SDS011;9713;48.140;11.530;2023-06-10T09:25:02;7.50;;;6.15;;
19161;SDS011;9713;48.140;11.530;2023-06-10T09:28:47;7.22;;;6.40;;
19161;SDS011;9713;48.140;11.530;2023-06-10T09:32:32;6.88;;;5.47;;
19161;SDS011;9713;48.140;11.530;2023-06-10T09:36:21;6.45;;;5.30;;
19161;SDS011;9713;48.140;11.530;2023-06-10T09:40:05;6.57;;;5.72;;
19161;SDS011;9713;48.140;11.530;2023-06-10T09:43:52;5.45;;;4.95;;
19161;SDS011;9713;48.140;11.530;2023-06-10T09:47:37;5.80;;;4.90;;
19161;SDS011;9713;48.140;11.530;2023-06-10T09:51:19;6.65;;;5.43;;
19161;SDS011;9713;48.140;11.530;2023-06-10T09:55:07;5.75;;;5.18;;
19161;SDS011;9713;48.140;11.530;2023-06-10T09:58:52;14.63;;;4.85;;
19161;SDS011;9713;48.140;11.530;2023-06-10T10:02:38;4.75;;;4.28;;
19161;SDS011;9713;48.140;11.530;2023-06-10T10:06:26;6.22;;;5.00;;
19161;SDS011;9713;48.140;11.530;2023-06-10T10:10:10;4.55;;;3.90;;
19161;SDS011;9713;48.140;11.530;2023-06-10T10:13:53;4.45;;;3.90;;
19161;SDS011;9713;48.140;11.530;2023-06-10T10:17:37;6.50;;;4.78;;
19161;SDS011;9713;48.140;11.530;2023-06-10T10:21:26;5.60;;;5.00;;
19161;SDS011;9713;48.140;11.530;2023-06-10T10:25:10;5.32;;;4.47;;
19161;SDS011;9713;48.140;11.530;2023-06-10T10:28:58;4.45;;;4.05;;
19161;SDS011;9713;48.140;11.530;2023-06-10T10:32:50;6.32;;;4.55;;
19161;SDS011;9713;48.140;11.530;2023-06-10T10:36:38;4.28;;;3.70;;
19161;SDS011;9713;48.140;11.530;2023-06-10T10:40:20;4.32;;;3.83;;
19161;SDS011;9713;48.140;11.530;2023-06-10T10:44:04;4.10;;;3.70;;
19161;SDS011;9713;48.140;11.530;2023-06-10T10:47:53;4.43;;;4.03;;
19161;SDS011;9713;48.140;11.530;2023-06-10T10:51:37;6.07;;;3.92;;
19161;SDS011;9713;48.140;11.530;2023-06-10T10:55:19;4.38;;;3.97;;
19161;SDS011;9713;48.140;11.530;2023-06-10T10:59:03;5.70;;;4.20;;
19161;SDS011;9713;48.140;11.530;2023-06-10T11:02:47;4.32;;;3.92;;
19161;SDS011;9713;48.140;11.530;2023-06-10T11:06:36;5.00;;;4.50;;
19161;SDS011;9713;48.140;11.530;2023-06-10T11:10:20;4.57;;;4.07;;
19161;SDS011;9713;48.140;11.530;2023-06-10T11:14:11;4.90;;;4.30;;
19161;SDS011;9713;48.140;11.530;2023-06-10T11:18:10;4.20;;;3.75;;
19161;SDS011;9713;48.140;11.530;2023-06-10T11:21:58;4.13;;;3.65;;
19161;SDS011;9713;48.140;11.530;2023-06-10T11:25:42;4.22;;;3.78;;
19161;SDS011;9713;48.140;11.530;2023-06-10T11:29:25;3.55;;;3.25;;
19161;SDS011;9713;48.140;11.530;2023-06-10T11:33:07;5.13;;;3.65;;
19161;SDS011;9713;48.140;11.530;2023-06-10T11:36:50;6.05;;;3.85;;
19161;SDS011;9713;48.140;11.530;2023-06-10T11:40:35;4.15;;;3.72;;
19161;SDS011;9713;48.140;11.530;2023-06-10T11:44:19;4.30;;;3.55;;
19161;SDS011;9713;48.140;11.530;2023-06-10T11:48:02;3.97;;;3.58;;
19161;SDS011;9713;48.140;11.530;2023-06-10T11:51:45;4.88;;;3.75;;
19161;SDS011;9713;48.140;11.530;2023-06-10T11:55:44;5.55;;;4.38;;
19161;SDS011;9713;48.140;11.530;2023-06-10T11:59:28;4.05;;;3.58;;
19161;SDS011;9713;48.140;11.530;2023-06-10T12:03:11;3.67;;;3.33;;
19161;SDS011;9713;48.140;11.530;2023-06-10T12:06:54;3.60;;;3.22;;
19161;SDS011;9713;48.140;11.530;2023-06-10T12:10:40;5.38;;;4.88;;
19161;SDS011;9713;48.140;11.530;2023-06-10T12:18:34;5.05;;;3.17;;
19161;SDS011;9713;48.140;11.530;2023-06-10T12:22:17;3.72;;;3.33;;
19161;SDS011;9713;48.140;11.530;2023-06-10T12:26:03;3.58;;;3.28;;
19161;SDS011;9713;48.140;11.530;2023-06-10T12:29:50;3.42;;;3.13;;
19161;SDS011;9713;48.140;11.530;2023-06-10T12:33:35;3.15;;;2.83;;
19161;SDS011;9713;48.140;11.530;2023-06-10T12:37:17;6.55;;;3.58;;
19161;SDS011;9713;48.140;11.530;2023-06-10T12:41:02;3.70;;;2.83;;
19161;SDS011;9713;48.140;11.530;2023-06-10T12:44:46;3.35;;;3.05;;
19161;SDS011;9713;48.140;11.530;2023-06-10T12:48:35;6.13;;;5.15;;
19161;SDS011;9713;48.140;11.530;2023-06-10T12:52:18;3.65;;;3.22;;
19161;SDS011;9713;48.140;11.530;2023-06-10T12:56:02;3.47;;;3.17;;
19161;SDS011;9713;48.140;11.530;2023-06-10T12:59:45;3.10;;;2.80;;
19161;SDS011;9713;48.140;11.530;2023-06-10T13:03:33;6.55;;;3.63;;
19161;SDS011;9713;48.140;11.530;2023-06-10T13:07:16;3.20;;;2.90;;
19161;SDS011;9713;48.140;11.530;2023-06-10T13:10:58;2.60;;;2.40;;
19161;SDS011;9713;48.140;11.530;2023-06-10T13:14:43;3.40;;;2.50;;
19161;SDS011;9713;48.140;11.530;2023-06-10T13:18:26;6.63;;;3.83;;
19161;SDS011;9713;48.140;11.530;2023-06-10T13:22:09;4.90;;;3.80;;
19161;SDS011;9713;48.140;11.530;2023-06-10T13:25:52;6.20;;;3.70;;
19161;SDS011;9713;48.140;11.530;2023-06-10T13:29:34;5.13;;;4.40;;
19161;SDS011;9713;48.140;11.530;2023-06-10T13:33:19;4.78;;;4.10;;
19161;SDS011;9713;48.140;11.530;2023-06-10T13:37:02;4.07;;;3.67;;
19161;SDS011;9713;48.140;11.530;2023-06-10T13:40:46;4.25;;;3.85;;
19161;SDS011;9713;48.140;11.530;2023-06-10T13:44:29;5.00;;;4.50;;
19161;SDS011;9713;48.140;11.530;2023-06-10T13:48:14;4.50;;;3.80;;
19161;SDS011;9713;48.140;11.530;2023-06-10T13:51:59;5.57;;;3.78;;
19161;SDS011;9713;48.140;11.530;2023-06-10T13:55:41;5.60;;;3.88;;
19161;SDS011;9713;48.140;11.530;2023-06-10T13:59:24;6.75;;;3.78;;
19161;SDS011;9713;48.140;11.530;2023-06-10T14:03:07;6.60;;;3.35;;
19161;SDS011;9713;48.140;11.530;2023-06-10T14:06:50;4.35;;;3.40;;
19161;SDS011;9713;48.140;11.530;2023-06-10T14:10:34;14.57;;;3.58;;
19161;SDS011;9713;48.140;11.530;2023-06-10T14:14:17;3.70;;;2.88;;
19161;SDS011;9713;48.140;11.530;2023-06-10T14:18:00;3.88;;;2.65;;
19161;SDS011;9713;48.140;11.530;2023-06-10T14:21:43;5.00;;;3.30;;
19161;SDS011;9713;48.140;11.530;2023-06-10T14:25:26;3.22;;;2.90;;
19161;SDS011;9713;48.140;11.530;2023-06-10T14:29:10;3.50;;;3.20;;
19161;SDS011;9713;48.140;11.530;2023-06-10T14:32:55;4.38;;;3.00;;
19161;SDS011;9713;48.140;11.530;2023-06-10T14:36:38;3.45;;;3.15;;
19161;SDS011;9713;48.140;11.530;2023-06-10T14:40:21;3.03;;;2.80;;
19161;SDS011;9713;48.140;11.530;2023-06-10T14:44:11;6.38;;;3.70;;
19161;SDS011;9713;48.140;11.530;2023-06-10T14:47:54;3.08;;;2.67;;
19161;SDS011;9713;48.140;11.530;2023-06-10T14:51:37;2.70;;;2.50;;
19161;SDS011;9713;48.140;11.530;2023-06-10T14:55:19;4.38;;;2.60;;
19161;SDS011;9713;48.140;11.530;2023-06-10T14:59:04;2.85;;;2.30;;
19161;SDS011;9713;48.140;11.530;2023-06-10T15:02:48;3.03;;;2.72;;
19161;SDS011;9713;48.140;11.530;2023-06-10T15:06:31;3.78;;;2.65;;
19161;SDS011;9713;48.140;11.530;2023-06-10T15:10:13;2.67;;;2.47;;
19161;SDS011;9713;48.140;11.530;2023-06-10T15:14:00;2.97;;;2.50;;
19161;SDS011;9713;48.140;11.530;2023-06-10T15:17:43;3.50;;;2.25;;
19161;SDS011;9713;48.140;11.530;2023-06-10T15:21:28;2.60;;;2.40;;
19161;SDS011;9713;48.140;11.530;2023-06-10T15:25:11;2.58;;;2.15;;
19161;SDS011;9713;48.140;11.530;2023-06-10T15:28:57;4.60;;;4.10;;
19161;SDS011;9713;48.140;11.530;2023-06-10T15:32:44;3.08;;;2.42;;
19161;SDS011;9713;48.140;11.530;2023-06-10T15:36:29;4.38;;;2.53;;
19161;SDS011;9713;48.140;11.530;2023-06-10T15:40:12;2.70;;;2.50;;
19161;SDS011;9713;48.140;11.530;2023-06-10T15:43:55;2.72;;;2.53;;
19161;SDS011;9713;48.140;11.530;2023-06-10T15:47:40;2.60;;;2.40;;
19161;SDS011;9713;48.140;11.530;2023-06-10T15:51:24;2.58;;;2.38;;
19161;SDS011;9713;48.140;11.530;2023-06-10T15:55:08;2.58;;;2.38;;
19161;SDS011;9713;48.140;11.530;2023-06-10T15:58:52;2.20;;;2.10;;
19161;SDS011;9713;48.140;11.530;2023-06-10T16:02:34;2.60;;;2.40;;
19161;SDS011;9713;48.140;11.530;2023-06-10T16:06:18;4.50;;;2.72;;
19161;SDS011;9713;48.140;11.530;2023-06-10T16:10:01;2.60;;;2.40;;
19161;SDS011;9713;48.140;11.530;2023-06-10T16:13:47;9.82;;;3.05;;
19161;SDS011;9713;48.140;11.530;2023-06-10T16:17:30;3.63;;;3.30;;
19161;SDS011;9713;48.140;11.530;2023-06-10T16:21:13;4.40;;;2.90;;
19161;SDS011;9713;48.140;11.530;2023-06-10T16:24:56;3.58;;;3.28;;
19161;SDS011;9713;48.140;11.530;2023-06-10T16:28:39;3.30;;;3.00;;
19161;SDS011;9713;48.140;11.530;2023-06-10T16:32:23;3.63;;;3.05;;
19161;SDS011;9713;48.140;11.530;2023-06-10T16:36:06;3.83;;;3.10;;
19161;SDS011;9713;48.140;11.530;2023-06-10T16:39:49;3.72;;;3.40;;
19161;SDS011;9713;48.140;11.530;2023-06-10T16:43:32;4.93;;;3.88;;
19161;SDS011;9713;48.140;11.530;2023-06-10T16:47:14;3.92;;;3.33;;
19161;SDS011;9713;48.140;11.530;2023-06-10T16:50:59;4.22;;;3.22;;
19161;SDS011;9713;48.140;11.530;2023-06-10T16:54:41;5.70;;;3.33;;
19161;SDS011;9713;48.140;11.530;2023-06-10T16:58:25;3.42;;;3.13;;
19161;SDS011;9713;48.140;11.530;2023-06-10T17:02:08;5.30;;;3.25;;
19161;SDS011;9713;48.140;11.530;2023-06-10T17:05:51;4.18;;;3.78;;
19161;SDS011;9713;48.140;11.530;2023-06-10T17:09:35;4.65;;;4.22;;
19161;SDS011;9713;48.140;11.530;2023-06-10T17:13:18;4.28;;;3.85;;
19161;SDS011;9713;48.140;11.530;2023-06-10T17:17:01;4.45;;;4.05;;
19161;SDS011;9713;48.140;11.530;2023-06-10T17:20:45;5.93;;;4.38;;
19161;SDS011;9713;48.140;11.530;2023-06-10T17:24:27;4.80;;;4.03;;
19161;SDS011;9713;48.140;11.530;2023-06-10T17:28:12;4.45;;;4.05;;
19161;SDS011;9713;48.140;11.530;2023-06-10T17:31:54;6.22;;;4.65;;
19161;SDS011;9713;48.140;11.530;2023-06-10T17:35:37;4.53;;;4.05;;
19161;SDS011;9713;48.140;11.530;2023-06-10T17:39:20;4.55;;;3.67;;
19161;SDS011;9713;48.140;11.530;2023-06-10T17:43:03;5.90;;;3.83;;
19161;SDS011;9713;48.140;11.530;2023-06-10T17:46:47;4.70;;;4.13;;
19161;SDS011;9713;48.140;11.530;2023-06-10T17:50:30;4.47;;;4.07;;
19161;SDS011;9713;48.140;11.530;2023-06-10T17:54:13;7.13;;;4.13;;
19161;SDS011;9713;48.140;11.530;2023-06-10T17:57:56;7.35;;;4.60;;
19161;SDS011;9713;48.140;11.530;2023-06-10T18:01:39;4.97;;;4.32;;
19161;SDS011;9713;48.140;11.530;2023-06-10T18:05:23;4.90;;;4.07;;
19161;SDS011;9713;48.140;11.530;2023-06-10T18:09:06;5.78;;;4.90;;
19161;SDS011;9713;48.140;11.530;2023-06-10T18:12:53;5.40;;;4.45;;
19161;SDS011;9713;48.140;11.530;2023-06-10T18:16:36;8.32;;;4.85;;
19161;SDS011;9713;48.140;11.530;2023-06-10T18:20:19;7.18;;;5.03;;
19161;SDS011;9713;48.140;11.530;2023-06-10T18:24:03;6.75;;;4.97;;
19161;SDS011;9713;48.140;11.530;2023-06-10T18:27:47;7.45;;;5.03;;
19161;SDS011;9713;48.140;11.530;2023-06-10T18:31:30;6.40;;;5.65;;
19161;SDS011;9713;48.140;11.530;2023-06-10T18:35:13;5.78;;;4.50;;
19161;SDS011;9713;48.140;11.530;2023-06-10T18:38:56;7.13;;;5.05;;
19161;SDS011;9713;48.140;11.530;2023-06-10T18:42:40;6.60;;;4.60;;
19161;SDS011;9713;48.140;11.530;2023-06-10T18:46:22;5.20;;;4.63;;
19161;SDS011;9713;48.140;11.530;2023-06-10T18:50:06;19.45;;;10.75;;
19161;SDS011;9713;48.140;11.530;2023-06-10T18:53:51;15.27;;;8.55;;
19161;SDS011;9713;48.140;11.530;2023-06-10T18:57:34;12.45;;;6.80;;
19161;SDS011;9713;48.140;11.530;2023-06-10T19:01:18;7.57;;;5.15;;
19161;SDS011;9713;48.140;11.530;2023-06-10T19:05:04;6.70;;;5.50;;
19161;SDS011;9713;48.140;11.530;2023-06-10T19:08:49;8.52;;;6.03;;
19161;SDS011;9713;48.140;11.530;2023-06-10T19:12:33;9.18;;;6.25;;
19161;SDS011;9713;48.140;11.530;2023-06-10T19:16:16;8.85;;;7.60;;
19161;SDS011;9713;48.140;11.530;2023-06-10T19:20:00;15.77;;;11.45;;
19161;SDS011;9713;48.140;11.530;2023-06-10T19:23:44;7.47;;;6.68;;
19161;SDS011;9713;48.140;11.530;2023-06-10T19:27:27;11.23;;;8.80;;
19161;SDS011;9713;48.140;11.530;2023-06-10T19:31:10;29.38;;;15.73;;
19161;SDS011;9713;48.140;11.530;2023-06-10T19:34:53;13.00;;;8.88;;
19161;SDS011;9713;48.140;11.530;2023-06-10T19:38:37;10.02;;;8.25;;
19161;SDS011;9713;48.140;11.530;2023-06-10T19:42:20;11.27;;;7.95;;
19161;SDS011;9713;48.140;11.530;2023-06-10T19:46:03;9.52;;;7.72;;
19161;SDS011;9713;48.140;11.530;2023-06-10T19:49:46;8.45;;;7.05;;
19161;SDS011;9713;48.140;11.530;2023-06-10T19:53:29;8.25;;;7.38;;
19161;SDS011;9713;48.140;11.530;2023-06-10T19:57:13;11.77;;;7.70;;
19161;SDS011;9713;48.140;11.530;2023-06-10T20:00:56;19.98;;;11.02;;
19161;SDS011;9713;48.140;11.530;2023-06-10T20:04:39;10.77;;;7.20;;
19161;SDS011;9713;48.140;11.530;2023-06-10T20:08:22;8.73;;;7.72;;
19161;SDS011;9713;48.140;11.530;2023-06-10T20:12:07;8.40;;;7.35;;
19161;SDS011;9713;48.140;11.530;2023-06-10T20:15:52;8.43;;;7.53;;
19161;SDS011;9713;48.140;11.530;2023-06-10T20:19:36;9.77;;;8.02;;
19161;SDS011;9713;48.140;11.530;2023-06-10T20:23:18;9.25;;;7.55;;
19161;SDS011;9713;48.140;11.530;2023-06-10T20:27:01;10.27;;;7.47;;
19161;SDS011;9713;48.140;11.530;2023-06-10T20:30:48;8.55;;;7.18;;
19161;SDS011;9713;48.140;11.530;2023-06-10T20:34:32;8.65;;;7.72;;
19161;SDS011;9713;48.140;11.530;2023-06-10T20:38:15;8.82;;;7.85;;
19161;SDS011;9713;48.140;11.530;2023-06-10T20:41:58;8.77;;;7.78;;
19161;SDS011;9713;48.140;11.530;2023-06-10T20:45:40;11.77;;;7.28;;
19161;SDS011;9713;48.140;11.530;2023-06-10T20:49:23;9.25;;;7.75;;
19161;SDS011;9713;48.140;11.530;2023-06-10T20:53:07;9.20;;;7.78;;
19161;SDS011;9713;48.140;11.530;2023-06-10T20:56:50;7.72;;;6.68;;
19161;SDS011;9713;48.140;11.530;2023-06-10T21:00:34;8.43;;;6.55;;
19161;SDS011;9713;48.140;11.530;2023-06-10T21:04:17;9.15;;;7.43;;
19161;SDS011;9713;48.140;11.530;2023-06-10T21:08:00;10.25;;;9.10;;
19161;SDS011;9713;48.140;11.530;2023-06-10T21:11:44;10.38;;;9.27;;
19161;SDS011;9713;48.140;11.530;2023-06-10T21:15:27;13.75;;;11.00;;
19161;SDS011;9713;48.140;11.530;2023-06-10T21:19:10;19.27;;;13.82;;
19161;SDS011;9713;48.140;11.530;2023-06-10T21:22:53;20.92;;;14.95;;
19161;SDS011;9713;48.140;11.530;2023-06-10T21:26:36;19.58;;;14.48;;
19161;SDS011;9713;48.140;11.530;2023-06-10T21:30:21;16.98;;;14.32;;
19161;SDS011;9713;48.140;11.530;2023-06-10T21:34:04;14.68;;;12.02;;
19161;SDS011;9713;48.140;11.530;2023-06-10T21:37:48;13.07;;;10.70;;
19161;SDS011;9713;48.140;11.530;2023-06-10T21:41:31;10.70;;;9.60;;
19161;SDS011;9713;48.140;11.530;2023-06-10T21:45:14;9.82;;;8.48;;
19161;SDS011;9713;48.140;11.530;2023-06-10T21:48:58;12.45;;;8.18;;
19161;SDS011;9713;48.140;11.530;2023-06-10T21:52:43;8.65;;;7.43;;
19161;SDS011;9713;48.140;11.530;2023-06-10T21:56:26;8.50;;;7.55;;
19161;SDS011;9713;48.140;11.530;2023-06-10T22:00:13;10.10;;;7.28;;
19161;SDS011;9713;48.140;11.530;2023-06-10T22:03:56;9.85;;;7.22;;
19161;SDS011;9713;48.140;11.530;2023-06-10T22:07:41;8.50;;;7.57;;
19161;SDS011;9713;48.140;11.530;2023-06-10T22:11:24;7.20;;;6.50;;
19161;SDS011;9713;48.140;11.530;2023-06-10T22:15:07;7.32;;;6.63;;
19161;SDS011;9713;48.140;11.530;2023-06-10T22:18:50;7.35;;;6.57;;
19161;SDS011;9713;48.140;11.530;2023-06-10T22:22:35;8.32;;;7.32;;
19161;SDS011;9713;48.140;11.530;2023-06-10T22:26:18;7.88;;;7.07;;